Time;durP1;ratioP1;P1;durP2;ratioP2;P2;SDS_P1;SDS_P2;PMS_P1;PMS_P2;Temp;Humidity;BMP_temperature;BMP_pressure;BME280_temperature;BME280_humidity;BME280_pressure;Samples;Min_cycle;Max_cycle;Signal;HPM_P1;HPM_P2
2023/06/18 00:00:40;;;;;;;20.95;18.75;;;;;;;15.74;79.60;94320.31;4210613;28;20047;-56
2023/06/18 00:02:42;;;;;;;21.13;18.92;;;;;;;15.77;79.50;94327.00;4211611;28;20040;-56
2023/06/18 00:04:43;;;;;;;21.00;19.00;;;;;;;15.79;79.41;94324.13;4209545;28;20456;-55
2023/06/18 00:06:45;;;;;;;21.38;19.45;;;;;;;15.84;79.51;94325.19;4206567;28;20054;-56
2023/06/18 00:08:47;;;;;;;20.95;18.77;;;;;;;15.85;79.16;94329.47;4209157;28;20147;-55
2023/06/18 00:10:49;;;;;;;22.85;19.70;;;;;;;15.85;79.31;94329.47;4201107;28;20512;-54
2023/06/18 00:12:51;;;;;;;22.45;20.23;;;;;;;15.86;79.22;94325.78;4210079;28;20044;-56
2023/06/18 00:14:52;;;;;;;22.45;20.27;;;;;;;15.84;79.45;94322.53;4211465;28;20131;-55
2023/06/18 00:16:54;;;;;;;21.63;19.42;;;;;;;15.74;79.47;94322.94;4209270;28;20537;-53
2023/06/18 00:18:56;;;;;;;22.48;20.20;;;;;;;15.72;79.70;94321.47;4210433;28;20131;-55
2023/06/18 00:20:59;;;;;;;22.42;20.33;;;;;;;15.73;79.73;94318.66;4206650;28;20048;-56
2023/06/18 00:23:01;;;;;;;23.48;21.17;;;;;;;15.75;79.70;94321.09;4206733;28;20040;-55
2023/06/18 00:25:03;;;;;;;22.52;20.15;;;;;;;15.73;79.92;94320.50;4207982;28;20101;-57
2023/06/18 00:27:05;;;;;;;22.90;20.65;;;;;;;15.80;79.88;94323.94;4205919;28;20041;-56
2023/06/18 00:29:06;;;;;;;23.55;21.17;;;;;;;15.82;79.77;94326.41;4203276;28;20043;-55
2023/06/18 00:31:11;;;;;;;22.48;20.33;;;;;;;15.80;79.83;94321.31;4200887;28;20558;-57
2023/06/18 00:33:13;;;;;;;24.02;21.42;;;;;;;15.85;79.59;94318.06;4202100;28;20491;-55
2023/06/18 00:35:15;;;;;;;25.23;20.70;;;;;;;15.86;79.22;94328.44;4207032;28;20054;-57
2023/06/18 00:37:20;;;;;;;23.45;21.20;;;;;;;15.83;79.42;94323.56;4199801;28;20048;-57
2023/06/18 00:39:22;;;;;;;23.73;21.35;;;;;;;15.83;79.53;94323.56;4208029;28;20044;-56
2023/06/18 00:41:27;;;;;;;24.23;21.73;;;;;;;15.79;79.87;94317.06;4205618;28;20094;-56
2023/06/18 00:43:29;;;;;;;24.27;21.83;;;;;;;15.83;79.88;94322.72;4206349;28;20050;-55
2023/06/18 00:45:30;;;;;;;24.42;22.13;;;;;;;15.76;79.93;94314.78;4209920;28;20429;-57
2023/06/18 00:47:32;;;;;;;24.23;21.95;;;;;;;15.73;79.97;94323.94;4202980;28;20083;-55
2023/06/18 00:49:35;;;;;;;23.48;21.30;;;;;;;15.70;80.18;94321.69;4210055;28;20051;-57
2023/06/18 00:51:38;;;;;;;24.35;22.05;;;;;;;15.69;80.13;94314.75;4203565;28;20488;-52
2023/06/18 00:53:40;;;;;;;25.00;22.60;;;;;;;15.68;80.25;94320.22;4210230;28;20044;-55
2023/06/18 00:55:43;;;;;;;25.25;22.75;;;;;;;15.72;80.31;94310.91;4207359;28;20048;-54
2023/06/18 00:57:49;;;;;;;24.60;22.33;;;;;;;15.74;79.94;94317.66;4206129;28;20052;-58
2023/06/18 00:59:51;;;;;;;24.65;22.02;;;;;;;15.80;79.86;94313.38;4205678;28;20052;-57
2023/06/18 01:01:54;;;;;;;24.17;21.80;;;;;;;15.82;80.26;94310.56;4209298;28;20059;-56
2023/06/18 01:03:59;;;;;;;26.20;23.58;;;;;;;15.85;79.99;94324.19;4211077;28;20600;-56
2023/06/18 01:06:03;;;;;;;24.55;22.23;;;;;;;15.85;79.81;94312.78;4213667;28;20457;-54
2023/06/18 01:08:06;;;;;;;25.63;23.08;;;;;;;15.86;79.89;94317.88;4211988;28;20079;-53
2023/06/18 01:10:11;;;;;;;25.73;22.98;;;;;;;15.82;80.11;94314.00;4210995;28;20051;-56
2023/06/18 01:12:13;;;;;;;24.50;22.10;;;;;;;15.81;79.93;94322.13;4202960;28;20048;-56
2023/06/18 01:14:17;;;;;;;24.98;22.73;;;;;;;15.84;80.19;94313.81;4210351;28;20067;-55
2023/06/18 01:16:22;;;;;;;25.77;23.17;;;;;;;15.86;80.03;94320.50;4212487;28;20079;-54
2023/06/18 01:18:25;;;;;;;24.75;22.35;;;;;;;15.88;80.17;94318.47;4211190;28;21466;-52
2023/06/18 01:20:30;;;;;;;25.17;22.88;;;;;;;15.82;79.67;94314.00;4211679;28;20113;-58
2023/06/18 01:22:39;;;;;;;24.83;22.30;;;;;;;15.83;79.98;94318.28;4214136;28;20101;-56
2023/06/18 01:24:49;;;;;;;25.70;22.88;;;;;;;15.86;79.99;94315.22;4212854;28;20048;-55
2023/06/18 01:26:56;;;;;;;25.33;22.67;;;;;;;15.84;79.99;94319.09;4212602;28;20048;-55
2023/06/18 01:28:58;;;;;;;26.42;23.83;;;;;;;15.85;80.22;94318.91;4208289;28;20044;-55
2023/06/18 01:31:01;;;;;;;26.13;23.67;;;;;;;15.85;80.08;94321.53;4206516;28;20074;-54
2023/06/18 01:33:03;;;;;;;27.45;23.02;;;;;;;15.87;79.96;94313.38;4204208;28;20131;-57
2023/06/18 01:35:14;;;;;;;25.10;22.65;;;;;;;15.90;79.95;94319.09;4210111;28;20410;-54
2023/06/18 01:37:24;;;;;;;25.63;22.95;;;;;;;15.86;79.89;94320.50;4211691;28;20083;-57
2023/06/18 01:39:38;;;;;;;24.80;22.42;;;;;;;15.86;79.63;94320.50;4211548;28;20056;-56
2023/06/18 01:41:42;;;;;;;25.25;22.67;;;;;;;15.83;80.14;94320.94;4214144;28;20518;-55
2023/06/18 01:43:48;;;;;;;;;;;;;;;15.81;79.95;94322.94;4204580;28;20502;-55
2023/06/18 01:45:57;;;;;;;25.25;22.88;;;;;;;15.83;80.07;94320.94;4203404;28;20366;-56
2023/06/18 01:48:04;;;;;;;25.55;23.02;;;;;;;15.81;79.93;94317.66;4207241;28;20071;-55
2023/06/18 01:50:07;;;;;;;26.70;23.90;;;;;;;15.76;79.90;94314.78;4187986;28;20576;-54
2023/06/18 01:52:12;;;;;;;27.42;24.83;;;;;;;15.76;80.26;94318.25;4212879;28;20127;-55
2023/06/18 01:54:14;;;;;;;26.13;23.52;;;;;;;15.73;80.48;94313.38;4211995;28;20131;-54
2023/06/18 01:56:17;;;;;;;25.95;23.55;;;;;;;15.76;80.51;94312.16;4211118;28;20067;-56
2023/06/18 01:58:21;;;;;;;26.90;24.40;;;;;;;15.75;80.53;94315.81;4204311;28;20659;-55
2023/06/18 02:00:23;;;;;;;27.15;24.55;;;;;;;15.80;80.35;94321.31;4212655;28;20048;-56
2023/06/18 02:02:25;;;;;;;27.58;24.58;;;;;;;15.84;80.34;94324.38;4205470;28;20044;-60
2023/06/18 02:04:27;;;;;;;26.83;24.23;;;;;;;15.85;80.09;94321.53;4208126;28;20044;-56
2023/06/18 02:06:28;;;;;;;27.05;24.42;;;;;;;15.89;79.98;94319.28;4212166;28;20077;-56
2023/06/18 02:08:30;;;;;;;26.27;23.75;;;;;;;15.89;79.99;94320.09;4202471;28;20055;-57
2023/06/18 02:10:32;;;;;;;27.30;24.63;;;;;;;15.88;80.14;94326.41;4200650;28;20087;-56
2023/06/18 02:12:33;;;;;;;26.33;23.80;;;;;;;15.90;80.06;94326.22;4209803;28;20479;-55
2023/06/18 02:14:35;;;;;;;26.45;23.95;;;;;;;15.92;79.75;94327.63;4212215;28;20052;-54
2023/06/18 02:16:37;;;;;;;26.63;24.05;;;;;;;15.91;79.95;94320.72;4209164;28;20100;-54
2023/06/18 02:18:38;;;;;;;27.65;24.85;;;;;;;15.93;79.80;94331.88;4207736;28;20086;-56
2023/06/18 02:20:41;;;;;;;27.15;24.55;;;;;;;15.92;79.88;94330.28;4205443;28;20056;-56
2023/06/18 02:22:43;;;;;;;26.77;24.17;;;;;;;15.95;79.91;94332.50;4200884;28;20052;-54
2023/06/18 02:24:45;;;;;;;26.00;23.40;;;;;;;15.97;79.41;94333.13;4209533;28;20122;-55
2023/06/18 02:26:47;;;;;;;27.60;24.98;;;;;;;15.95;79.59;94327.22;4208338;28;20056;-54
2023/06/18 02:28:49;;;;;;;28.23;25.33;;;;;;;15.96;79.90;94322.78;4206409;28;20070;-56
2023/06/18 02:30:50;;;;;;;27.30;24.60;;;;;;;15.95;79.60;94327.22;4205391;28;20068;-54
2023/06/18 02:32:52;;;;;;;28.27;25.40;;;;;;;15.92;79.63;94327.63;4213101;28;20044;-58
2023/06/18 02:34:55;;;;;;;27.73;25.13;;;;;;;15.93;79.79;94328.44;4206195;28;20131;-58
2023/06/18 02:36:56;;;;;;;27.13;24.63;;;;;;;15.90;80.03;94332.31;4207006;28;20044;-59
2023/06/18 02:38:58;;;;;;;27.83;25.05;;;;;;;15.90;79.93;94336.78;4212274;28;20044;-59
2023/06/18 02:41:00;;;;;;;27.73;24.95;;;;;;;15.87;80.15;94334.53;4204419;28;20056;-57
2023/06/18 02:43:05;;;;;;;28.10;25.35;;;;;;;15.85;79.94;94331.25;4209559;28;20050;-55
2023/06/18 02:45:07;;;;;;;27.48;24.88;;;;;;;15.85;80.11;94340.03;4212390;28;20040;-59
2023/06/18 02:47:09;;;;;;;25.92;23.27;;;;;;;15.89;80.13;94341.22;4212610;28;20044;-58
2023/06/18 02:49:11;;;;;;;27.88;25.17;;;;;;;15.85;80.19;94336.53;4203924;28;20105;-58
2023/06/18 02:51:12;;;;;;;28.42;25.60;;;;;;;15.86;80.33;94341.63;4210797;28;20097;-56
2023/06/18 02:53:14;;;;;;;27.45;24.65;;;;;;;15.83;80.24;94339.41;4212694;28;20047;-58
2023/06/18 02:55:16;;;;;;;27.52;24.73;;;;;;;15.88;80.27;94347.53;4211856;28;20163;-59
2023/06/18 02:57:18;;;;;;;27.38;24.58;;;;;;;15.89;80.14;94343.06;4206922;28;20078;-59
2023/06/18 02:59:20;;;;;;;27.25;24.63;;;;;;;15.91;80.05;94343.69;4207171;28;20135;-59
2023/06/18 03:01:24;;;;;;;27.60;24.83;;;;;;;15.87;79.94;94345.09;4205944;28;20553;-58
2023/06/18 03:03:26;;;;;;;27.52;24.73;;;;;;;15.90;79.97;94347.34;4211578;28;20040;-59
2023/06/18 03:05:28;;;;;;;26.42;23.48;;;;;;;15.93;79.77;94350.38;4211348;28;20051;-57
2023/06/18 03:07:30;;;;;;;26.80;24.13;;;;;;;15.95;79.81;94352.84;4212708;28;20109;-57
2023/06/18 03:09:32;;;;;;;26.50;23.85;;;;;;;15.93;79.81;94349.56;4205972;28;20631;-58
2023/06/18 03:11:34;;;;;;;27.20;24.67;;;;;;;15.91;79.97;94349.75;4203739;28;20079;-58
2023/06/18 03:13:36;;;;;;;26.90;24.33;;;;;;;15.88;80.18;94352.00;4208472;28;20186;-59
2023/06/18 03:15:38;;;;;;;26.65;24.05;;;;;;;15.84;80.05;94350.78;4210321;28;20504;-56
2023/06/18 03:17:39;;;;;;;27.23;24.20;;;;;;;15.90;80.51;94344.69;4212277;28;20071;-56
2023/06/18 03:19:41;;;;;;;26.33;23.73;;;;;;;15.91;79.90;94349.75;4197559;28;20472;-55
2023/06/18 03:21:43;;;;;;;26.25;23.65;;;;;;;15.92;79.94;94351.41;4211813;28;20048;-56
2023/06/18 03:23:47;;;;;;;28.25;25.45;;;;;;;15.92;80.07;94354.06;4212313;28;20039;-55
2023/06/18 03:25:48;;;;;;;25.52;23.13;;;;;;;15.92;79.84;94342.69;4211448;28;20071;-56
2023/06/18 03:27:50;;;;;;;26.70;23.95;;;;;;;15.90;80.00;94345.50;4209995;28;20060;-53
2023/06/18 03:29:55;;;;;;;26.65;23.88;;;;;;;15.93;80.10;94346.94;4206059;28;20490;-55
2023/06/18 03:31:57;;;;;;;27.15;24.27;;;;;;;15.90;79.94;94342.06;4195640;28;20449;-58
2023/06/18 03:34:01;;;;;;;25.77;23.38;;;;;;;15.95;79.71;94350.19;4195495;28;20364;-55
2023/06/18 03:36:05;;;;;;;26.55;23.95;;;;;;;15.95;79.73;94348.34;4210067;28;20044;-57
2023/06/18 03:38:07;;;;;;;27.08;23.80;;;;;;;15.99;79.78;94353.25;4211464;28;20050;-58
2023/06/18 03:40:10;;;;;;;26.55;23.95;;;;;;;15.97;79.95;94351.59;4203719;28;20040;-58
2023/06/18 03:42:14;;;;;;;26.58;24.05;;;;;;;15.92;79.62;94356.69;4211618;28;20383;-56
2023/06/18 03:44:16;;;;;;;24.30;22.02;;;;;;;15.96;79.92;94352.63;4210726;28;21462;-55
2023/06/18 03:46:18;;;;;;;26.10;23.70;;;;;;;15.95;79.93;94347.53;4210337;28;20130;-58
2023/06/18 03:48:19;;;;;;;26.20;23.45;;;;;;;15.97;79.69;94351.59;4205777;28;20097;-54
2023/06/18 03:50:21;;;;;;;24.70;22.27;;;;;;;16.00;79.78;94353.03;4199351;28;20398;-57
2023/06/18 03:52:23;;;;;;;25.77;23.13;;;;;;;15.97;79.56;94356.91;4207506;28;20051;-54
2023/06/18 03:54:26;;;;;;;25.38;22.90;;;;;;;15.98;79.84;94357.69;4208303;28;20038;-54
2023/06/18 03:56:27;;;;;;;26.80;24.15;;;;;;;16.03;79.70;94349.19;4205435;28;20044;-57
2023/06/18 03:58:30;;;;;;;25.65;23.05;;;;;;;16.07;79.79;94359.16;4211071;28;20142;-56
2023/06/18 04:00:32;;;;;;;26.35;23.75;;;;;;;16.07;79.48;94356.50;4210708;28;20093;-55
2023/06/18 04:02:34;;;;;;;25.75;23.15;;;;;;;16.11;79.55;94360.38;4198799;28;20052;-57
2023/06/18 04:04:36;;;;;;;27.33;24.70;;;;;;;16.16;79.46;94362.44;4210029;28;20040;-58
2023/06/18 04:06:38;;;;;;;25.48;22.92;;;;;;;16.16;79.30;94360.59;4206242;28;20407;-56
2023/06/18 04:08:42;;;;;;;26.73;23.73;;;;;;;16.21;79.40;94362.63;4200024;28;20076;-55
2023/06/18 04:10:44;;;;;;;28.38;24.20;;;;;;;16.26;79.33;94370.78;4207937;28;20040;-58
2023/06/18 04:12:46;;;;;;;27.23;24.60;;;;;;;16.27;79.05;94369.75;4208137;28;20507;-54
2023/06/18 04:14:48;;;;;;;26.75;24.02;;;;;;;16.31;79.02;94360.41;4199304;28;20465;-55
2023/06/18 04:16:51;;;;;;;26.67;23.92;;;;;;;16.29;78.91;94365.06;4201564;28;20058;-58
2023/06/18 04:18:52;;;;;;;27.38;22.80;;;;;;;16.27;78.98;94363.66;4194304;28;20075;-55
2023/06/18 04:20:54;;;;;;;26.08;23.65;;;;;;;16.24;78.96;94375.44;4206970;28;20101;-60
2023/06/18 04:22:56;;;;;;;26.02;23.52;;;;;;;16.30;79.15;94371.16;4209434;28;20147;-58
2023/06/18 04:24:57;;;;;;;27.42;24.63;;;;;;;16.33;79.13;94366.28;4211398;28;20040;-56
2023/06/18 04:26:59;;;;;;;25.17;22.80;;;;;;;16.38;79.08;94369.13;4211389;28;20079;-58
2023/06/18 04:29:01;;;;;;;25.65;23.20;;;;;;;16.38;78.89;94379.72;4211296;28;20052;-57
2023/06/18 04:31:02;;;;;;;26.60;23.60;;;;;;;16.41;78.77;94378.50;4207320;28;20048;-59
2023/06/18 04:33:04;;;;;;;27.02;24.15;;;;;;;16.43;78.69;94375.66;4205135;28;20050;-58
2023/06/18 04:35:06;;;;;;;25.33;22.90;;;;;;;16.47;78.88;94376.88;4201278;28;20052;-57
2023/06/18 04:37:08;;;;;;;27.17;24.25;;;;;;;16.47;79.15;94375.03;4211079;28;20044;-60
2023/06/18 04:39:11;;;;;;;25.65;23.15;;;;;;;16.44;78.71;94378.09;4210053;28;20047;-53
2023/06/18 04:41:12;;;;;;;26.33;23.87;;;;;;;16.49;78.61;94382.78;4209574;28;20266;-59
2023/06/18 04:43:17;;;;;;;26.00;23.40;;;;;;;16.50;78.57;94377.28;4211067;28;20276;-55
2023/06/18 04:45:19;;;;;;;26.05;23.48;;;;;;;16.50;78.42;94382.56;4210737;28;20135;-55
2023/06/18 04:47:21;;;;;;;24.98;22.48;;;;;;;16.53;78.37;94382.16;4209716;28;20394;-58
2023/06/18 04:49:23;;;;;;;25.00;22.48;;;;;;;16.57;78.18;94387.88;4210392;28;20043;-55
2023/06/18 04:51:25;;;;;;;25.00;22.42;;;;;;;16.58;78.16;94381.53;4209859;28;20097;-53
2023/06/18 04:53:29;;;;;;;24.73;22.30;;;;;;;16.61;77.87;94389.09;4210304;28;20452;-54
2023/06/18 04:55:30;;;;;;;25.25;22.85;;;;;;;16.55;77.90;94395.19;4208403;28;20055;-57
2023/06/18 04:57:32;;;;;;;26.15;23.20;;;;;;;16.51;78.03;94396.59;4206009;28;20055;-57
2023/06/18 04:59:34;;;;;;;25.08;22.60;;;;;;;16.56;78.17;94396.78;4205944;28;20063;-57
2023/06/18 05:01:36;;;;;;;24.58;21.98;;;;;;;16.59;78.17;94396.41;4209856;28;20048;-58
2023/06/18 05:03:38;;;;;;;28.02;21.42;;;;;;;16.56;77.58;94402.91;4209408;28;20059;-57
2023/06/18 05:05:39;;;;;;;25.15;21.80;;;;;;;16.57;77.78;94403.72;4199704;28;20048;-58
2023/06/18 05:07:42;;;;;;;24.05;21.65;;;;;;;16.52;78.10;94403.50;4209142;28;20052;-54
2023/06/18 05:09:43;;;;;;;24.67;22.38;;;;;;;16.51;78.11;94412.47;4211394;28;20048;-57
2023/06/18 05:11:45;;;;;;;23.98;21.67;;;;;;;16.52;78.15;94414.09;4210781;28;20097;-56
2023/06/18 05:13:47;;;;;;;25.17;22.38;;;;;;;16.53;78.14;94413.88;4210135;28;20056;-57
2023/06/18 05:15:49;;;;;;;24.33;21.80;;;;;;;16.59;78.31;94412.28;4209747;28;20128;-56
2023/06/18 05:17:50;;;;;;;24.02;21.65;;;;;;;16.63;78.11;94416.16;4198524;28;20505;-57
2023/06/18 05:19:52;;;;;;;24.58;22.27;;;;;;;16.70;78.07;94421.44;4209340;28;20494;-58
2023/06/18 05:21:54;;;;;;;24.13;21.80;;;;;;;16.70;77.64;94427.53;4210979;28;20140;-57
2023/06/18 05:23:55;;;;;;;23.45;20.95;;;;;;;16.70;77.54;94427.53;4210895;28;20055;-55
2023/06/18 05:25:57;;;;;;;23.80;21.40;;;;;;;16.67;77.53;94433.25;4210243;28;20079;-58
2023/06/18 05:27:59;;;;;;;24.35;21.75;;;;;;;16.67;77.66;94435.03;4207754;28;20052;-56
2023/06/18 05:30:01;;;;;;;23.95;21.65;;;;;;;16.71;77.60;94434.47;4201133;28;20051;-57
2023/06/18 05:32:03;;;;;;;23.95;21.65;;;;;;;16.68;77.44;94436.69;4213363;28;20048;-55
2023/06/18 05:34:05;;;;;;;24.52;22.23;;;;;;;16.68;77.57;94437.50;4211641;28;20044;-57
2023/06/18 05:36:07;;;;;;;24.00;21.70;;;;;;;16.67;77.77;94441.16;4212146;28;20040;-54
2023/06/18 05:38:08;;;;;;;23.65;21.23;;;;;;;16.65;77.80;94443.19;4201275;28;20530;-57
2023/06/18 05:40:11;;;;;;;24.27;21.83;;;;;;;16.63;77.85;94445.22;4208706;28;20098;-57
2023/06/18 05:42:12;;;;;;;23.65;21.30;;;;;;;16.65;78.02;94448.50;4208319;28;20109;-60
2023/06/18 05:44:14;;;;;;;24.85;22.38;;;;;;;16.68;77.99;94453.38;4200345;28;20075;-58
2023/06/18 05:46:16;;;;;;;23.83;21.63;;;;;;;16.65;77.61;94453.78;4210762;28;20047;-56
2023/06/18 05:48:19;;;;;;;25.30;22.80;;;;;;;16.72;78.10;94451.13;4206235;28;20121;-53
2023/06/18 05:50:20;;;;;;;24.40;21.92;;;;;;;16.77;77.71;94457.44;4203734;28;20056;-54
2023/06/18 05:52:22;;;;;;;24.67;22.02;;;;;;;16.81;77.52;94462.38;4212563;28;20052;-58
2023/06/18 05:54:25;;;;;;;24.65;22.35;;;;;;;16.76;77.57;94465.59;4203405;28;20044;-54
2023/06/18 05:56:27;;;;;;;24.20;21.77;;;;;;;16.74;77.52;94457.84;4207234;28;20483;-58
2023/06/18 05:58:28;;;;;;;23.60;21.42;;;;;;;16.77;77.56;94460.06;4200776;28;20048;-58
2023/06/18 06:00:30;;;;;;;23.63;21.23;;;;;;;16.73;77.80;94468.63;4206095;28;20097;-59
2023/06/18 06:02:32;;;;;;;24.08;21.63;;;;;;;16.78;77.68;94464.38;4207989;28;20425;-60
2023/06/18 06:04:34;;;;;;;24.02;21.73;;;;;;;16.83;77.94;94465.63;4205871;28;20128;-58
2023/06/18 06:06:36;;;;;;;25.77;20.77;;;;;;;16.81;77.67;94471.09;4212863;28;20052;-58
2023/06/18 06:08:38;;;;;;;23.67;21.27;;;;;;;16.85;77.74;94474.16;4205946;28;20177;-58
2023/06/18 06:10:40;;;;;;;22.40;20.23;;;;;;;16.92;77.60;94477.63;4213044;28;20047;-60
2023/06/18 06:12:42;;;;;;;23.40;21.20;;;;;;;16.94;77.50;94475.59;4212803;28;20540;-59
2023/06/18 06:14:44;;;;;;;24.20;21.80;;;;;;;16.97;77.22;94485.75;4212553;28;20097;-61
2023/06/18 06:16:45;;;;;;;22.33;20.05;;;;;;;17.00;77.08;94482.72;4207005;28;20619;-59
2023/06/18 06:18:49;;;;;;;22.40;20.23;;;;;;;17.03;76.98;94482.28;4212065;28;20058;-59
2023/06/18 06:20:50;;;;;;;22.85;20.45;;;;;;;17.10;76.85;94477.00;4207736;28;20059;-61
2023/06/18 06:22:52;;;;;;;22.33;20.23;;;;;;;17.15;76.85;94495.75;4212040;28;20051;-57
2023/06/18 06:24:54;;;;;;;22.85;20.65;;;;;;;17.15;76.65;94495.75;4212058;28;20054;-57
2023/06/18 06:26:56;;;;;;;22.08;19.77;;;;;;;17.24;76.64;94485.75;4205168;28;20045;-57
2023/06/18 06:28:57;;;;;;;23.83;20.02;;;;;;;17.22;76.46;94496.53;4197337;28;20102;-58
2023/06/18 06:30:59;;;;;;;21.60;19.38;;;;;;;17.24;76.02;94499.81;4208245;28;20052;-60
2023/06/18 06:33:01;;;;;;;22.33;20.20;;;;;;;17.28;76.03;94494.91;4202065;28;20284;-60
2023/06/18 06:35:03;;;;;;;23.45;21.10;;;;;;;17.27;76.19;94494.13;4204099;28;20044;-58
2023/06/18 06:37:05;;;;;;;22.15;19.92;;;;;;;17.33;76.41;94503.06;4213783;28;20052;-59
2023/06/18 06:39:07;;;;;;;21.17;19.02;;;;;;;17.34;75.95;94499.41;4212556;28;20625;-59
2023/06/18 06:41:08;;;;;;;21.20;19.02;;;;;;;17.42;75.35;94503.66;4212744;28;20054;-59
2023/06/18 06:43:12;;;;;;;21.38;19.10;;;;;;;17.45;75.69;94500.59;4203631;28;20080;-61
2023/06/18 06:45:14;;;;;;;21.15;19.05;;;;;;;17.52;75.57;94501.41;4211497;28;20106;-61
2023/06/18 06:47:17;;;;;;;23.75;19.67;;;;;;;17.52;75.43;94510.16;4207522;28;20139;-61
2023/06/18 06:49:19;;;;;;;22.48;20.17;;;;;;;17.59;75.45;94510.97;4212006;28;20062;-60
2023/06/18 06:51:20;;;;;;;20.60;18.65;;;;;;;17.61;75.13;94514.19;4212594;28;20047;-61
2023/06/18 06:53:22;;;;;;;21.17;19.08;;;;;;;17.68;74.81;94506.28;4205240;28;20112;-60
2023/06/18 06:55:23;;;;;;;21.08;19.08;;;;;;;17.74;74.81;94509.91;4209577;28;20055;-60
2023/06/18 06:57:25;;;;;;;20.50;18.25;;;;;;;17.80;74.57;94515.19;4209601;28;20047;-58
2023/06/18 06:59:27;;;;;;;19.38;17.48;;;;;;;17.89;74.71;94517.63;4209629;28;20046;-59
2023/06/18 07:01:29;;;;;;;21.33;19.02;;;;;;;17.93;74.04;94516.19;4211569;28;20109;-59
2023/06/18 07:03:31;;;;;;;18.95;16.95;;;;;;;17.95;73.89;94525.56;4208065;28;20044;-62
2023/06/18 07:05:32;;;;;;;19.38;17.38;;;;;;;17.95;73.55;94519.47;4201250;28;20041;-60
2023/06/18 07:07:35;;;;;;;17.67;15.88;;;;;;;17.96;73.80;94527.22;4209175;28;20039;-58
2023/06/18 07:09:37;;;;;;;20.30;17.75;;;;;;;17.94;73.54;94534.56;4204692;28;20513;-58
2023/06/18 07:11:40;;;;;;;16.95;15.35;;;;;;;17.97;73.24;94531.47;4208959;28;20490;-61
2023/06/18 07:13:42;;;;;;;18.42;16.70;;;;;;;18.02;73.29;94533.50;4208578;28;20121;-59
2023/06/18 07:15:44;;;;;;;17.63;15.80;;;;;;;18.03;73.03;94529.03;4210923;28;20044;-57
2023/06/18 07:17:45;;;;;;;17.95;15.45;;;;;;;18.04;72.82;94536.75;4211841;28;20139;-57
2023/06/18 07:19:47;;;;;;;16.75;14.95;;;;;;;18.15;72.63;94524.69;4210571;28;20044;-57
2023/06/18 07:21:50;;;;;;;18.23;15.68;;;;;;;18.28;72.54;94529.91;4206664;28;20079;-59
2023/06/18 07:23:51;;;;;;;19.30;16.23;;;;;;;18.19;71.37;94525.88;4195903;28;20044;-62
2023/06/18 07:25:53;;;;;;;17.23;15.40;;;;;;;18.09;71.92;94531.66;4195655;28;20056;-59
2023/06/18 07:27:55;;;;;;;15.48;13.88;;;;;;;18.05;71.31;94526.94;4198443;28;20072;-61
2023/06/18 07:29:57;;;;;;;16.48;14.82;;;;;;;17.91;72.03;94526.19;4211415;28;20052;-61
2023/06/18 07:31:59;;;;;;;18.73;14.40;;;;;;;17.83;72.51;94532.53;4201963;28;20405;-59
2023/06/18 07:34:00;;;;;;;16.33;14.65;;;;;;;17.85;72.07;94530.47;4196214;28;20056;-60
2023/06/18 07:36:02;;;;;;;20.08;15.07;;;;;;;17.98;72.39;94533.13;4203242;28;20068;-59
2023/06/18 07:38:04;;;;;;;16.20;14.55;;;;;;;18.02;71.89;94533.50;4200730;28;20126;-58
2023/06/18 07:40:07;;;;;;;18.02;15.38;;;;;;;17.95;71.28;94541.47;4211922;28;20056;-59
2023/06/18 07:42:08;;;;;;;24.48;21.00;;;;;;;17.37;73.82;94541.34;4211834;28;20044;-61
2023/06/18 07:44:10;;;;;;;17.40;15.60;;;;;;;17.47;73.43;94538.28;4211125;28;20131;-61
2023/06/18 07:46:12;;;;;;;18.13;16.17;;;;;;;17.42;73.70;94530.94;4210716;28;20044;-59
2023/06/18 07:48:14;;;;;;;18.85;16.52;;;;;;;17.35;73.77;94540.72;4212470;28;20123;-59
2023/06/18 07:50:16;;;;;;;17.70;15.90;;;;;;;17.15;73.65;94540.75;4210173;28;20048;-59
2023/06/18 07:52:17;;;;;;;19.33;17.33;;;;;;;17.02;74.35;94543.38;4211191;28;20059;-58
2023/06/18 07:54:19;;;;;;;18.80;17.05;;;;;;;16.98;74.71;94541.13;4210789;28;20054;-62
2023/06/18 07:56:24;;;;;;;21.02;18.08;;;;;;;17.12;75.34;94541.97;4211424;28;20060;-61
2023/06/18 07:58:26;;;;;;;20.33;17.02;;;;;;;17.22;75.43;94548.69;4210456;28;20557;-60
2023/06/18 08:00:27;;;;;;;21.17;16.08;;;;;;;17.35;75.10;94548.66;4206143;28;20047;-61
2023/06/18 08:02:29;;;;;;;22.63;15.77;;;;;;;17.47;74.69;94551.53;4211358;28;20054;-61
2023/06/18 08:04:31;;;;;;;17.83;15.80;;;;;;;17.54;74.78;94553.13;4210323;28;20402;-60
2023/06/18 08:06:33;;;;;;;18.30;16.42;;;;;;;17.58;74.85;94553.56;4199147;28;20426;-60
2023/06/18 08:08:34;;;;;;;18.67;16.35;;;;;;;17.61;74.48;94556.56;4211030;28;20044;-57
2023/06/18 08:10:36;;;;;;;22.15;16.45;;;;;;;17.49;74.48;94555.59;4206308;28;20048;-60
2023/06/18 08:12:38;;;;;;;17.23;15.23;;;;;;;17.58;74.46;94561.50;4203924;28;20139;-61
2023/06/18 08:14:40;;;;;;;16.58;14.88;;;;;;;17.42;74.19;94569.84;4208725;28;20055;-60
2023/06/18 08:16:41;;;;;;;18.38;16.58;;;;;;;17.44;74.71;94568.63;4207016;28;20048;-60
2023/06/18 08:18:43;;;;;;;20.73;17.25;;;;;;;17.17;75.19;94567.81;4202169;28;20485;-60
2023/06/18 08:20:45;;;;;;;23.80;18.20;;;;;;;17.05;75.65;94575.53;4200500;28;20044;-57
2023/06/18 08:22:47;;;;;;;22.20;20.00;;;;;;;17.03;76.13;94568.81;4208528;28;20055;-60
2023/06/18 08:24:48;;;;;;;25.48;22.98;;;;;;;16.96;75.98;94577.56;4211113;28;20047;-61
2023/06/18 08:26:50;;;;;;;31.30;26.77;;;;;;;17.06;76.33;94571.88;4211522;28;20089;-60
2023/06/18 08:28:54;;;;;;;25.20;22.50;;;;;;;17.22;75.67;94572.50;4211335;28;20044;-61
2023/06/18 08:30:56;;;;;;;26.55;23.80;;;;;;;17.33;75.06;94578.00;4209155;28;20531;-60
2023/06/18 08:32:57;;;;;;;24.80;22.33;;;;;;;17.52;74.73;94579.00;4199353;28;20097;-58
2023/06/18 08:35:01;;;;;;;19.17;17.38;;;;;;;17.63;73.72;94587.38;4208658;28;20051;-60
2023/06/18 08:37:03;;;;;;;22.50;17.92;;;;;;;17.69;73.54;94583.91;4211311;28;20052;-61
2023/06/18 08:39:05;;;;;;;22.02;17.88;;;;;;;17.81;73.17;94587.56;4211291;28;20055;-62
2023/06/18 08:41:07;;;;;;;23.83;20.88;;;;;;;17.68;72.73;94583.09;4209218;28;20044;-61
2023/06/18 08:43:12;;;;;;;25.70;19.67;;;;;;;17.81;72.94;94590.22;4201748;28;20048;-62
2023/06/18 08:45:14;;;;;;;17.13;15.35;;;;;;;17.83;72.55;94590.81;4208987;28;20056;-60
2023/06/18 08:47:17;;;;;;;18.20;15.95;;;;;;;17.91;72.54;94582.66;4209342;28;20070;-60
2023/06/18 08:49:19;;;;;;;20.50;18.35;;;;;;;18.05;71.92;94586.09;4209454;28;20507;-62
2023/06/18 08:51:21;;;;;;;20.90;17.83;;;;;;;18.07;71.76;94589.38;4210895;28;20406;-60
2023/06/18 08:53:53;;;;;;;21.50;16.75;;;;;;;18.22;71.62;94591.78;4209726;28;20067;-60
2023/06/18 08:55:55;;;;;;;19.98;14.90;;;;;;;18.44;71.37;94596.78;4205855;28;20501;-59
2023/06/18 08:58:10;;;;;;;17.77;14.23;;;;;;;18.61;71.03;94590.00;4204125;28;20102;-61
2023/06/18 09:00:12;;;;;;;18.25;13.25;;;;;;;18.74;70.28;94595.22;4206549;28;20180;-62
2023/06/18 09:02:18;;;;;;;13.95;12.55;;;;;;;18.78;69.96;94591.16;4206518;28;20049;-62
2023/06/18 09:04:21;;;;;;;14.23;12.82;;;;;;;18.86;69.84;94590.06;4200710;28;20048;-59
2023/06/18 09:06:23;;;;;;;14.63;13.13;;;;;;;18.92;69.74;94589.22;4208074;28;20040;-59
2023/06/18 09:08:25;;;;;;;14.25;12.75;;;;;;;19.01;69.29;94589.78;4211876;28;20138;-56
2023/06/18 09:10:27;;;;;;;14.10;12.75;;;;;;;19.10;69.37;94593.84;4202673;28;20074;-59
2023/06/18 09:12:29;;;;;;;17.20;12.70;;;;;;;19.18;69.13;94595.41;4212376;28;20103;-61
2023/06/18 09:14:31;;;;;;;14.23;12.13;;;;;;;19.27;69.34;94593.28;4213300;28;20052;-59
2023/06/18 09:16:32;;;;;;;13.68;12.05;;;;;;;19.36;68.98;94594.66;4209099;28;20055;-60
2023/06/18 09:18:34;;;;;;;15.48;11.48;;;;;;;19.30;68.28;94593.69;4202828;28;20075;-58
2023/06/18 09:20:36;;;;;;;13.90;11.52;;;;;;;19.30;68.01;94590.22;4212694;28;20082;-58
2023/06/18 09:22:47;;;;;;;11.63;10.43;;;;;;;19.29;67.48;94591.25;4203720;28;20055;-59